Time;durP1;ratioP1;P1;durP2;ratioP2;P2;SDS_P1;SDS_P2;PMS_P1;PMS_P2;Temp;Humidity;BMP_temperature;BMP_pressure;BME280_temperature;BME280_humidity;BME280_pressure;Samples;Min_cycle;Max_cycle;Signal;HPM_P1;HPM_P2
2022/04/11 00:01:57;;;;;;;7.07;1.73;;;10.90;99.90;;;;;;4882493;29;20032;-87
2022/04/11 00:04:24;;;;;;;1.38;1.10;;;10.90;99.90;;;;;;4882525;29;20047;-86
2022/04/11 00:06:51;;;;;;;2.60;1.17;;;10.90;99.90;;;;;;4882665;29;20039;-87
2022/04/11 00:09:18;;;;;;;3.65;2.30;;;10.80;99.90;;;;;;4882592;29;20036;-87
2022/04/11 00:11:44;;;;;;;2.40;1.88;;;10.80;99.90;;;;;;4882389;29;20033;-87
2022/04/11 00:14:15;;;;;;;5.57;1.42;;;10.80;99.90;;;;;;4882360;29;20504;-87
2022/04/11 00:16:42;;;;;;;9.70;1.45;;;10.80;99.90;;;;;;4882271;29;20032;-86
2022/04/11 00:19:08;;;;;;;3.58;1.45;;;10.80;99.90;;;;;;4867152;29;20490;-87
2022/04/11 00:21:36;;;;;;;2.83;1.38;;;10.70;99.90;;;;;;4882171;29;20049;-86
2022/04/11 00:24:06;;;;;;;3.83;1.08;;;10.70;99.90;;;;;;4882369;29;20033;-86
2022/04/11 00:26:33;;;;;;;2.45;1.77;;;10.70;99.90;;;;;;4882470;29;20044;-87
2022/04/11 00:29:00;;;;;;;3.80;1.30;;;10.70;99.90;;;;;;4882431;29;20065;-86
2022/04/11 00:31:29;;;;;;;1.92;0.80;;;10.70;99.90;;;;;;4882058;29;20040;-87
2022/04/11 00:33:56;;;;;;;1.63;0.75;;;10.70;99.90;;;;;;4882291;29;20048;-86
2022/04/11 00:36:23;;;;;;;2.15;1.05;;;10.70;99.90;;;;;;4866868;29;20044;-86
2022/04/11 00:38:50;;;;;;;1.95;1.08;;;10.70;99.90;;;;;;4882227;29;20036;-87
2022/04/11 00:41:17;;;;;;;3.33;1.08;;;10.70;99.90;;;;;;4882108;29;20024;-86
2022/04/11 00:43:43;;;;;;;12.85;1.40;;;10.70;99.90;;;;;;4882275;29;20084;-87
2022/04/11 00:46:10;;;;;;;1.23;0.85;;;10.60;99.90;;;;;;4882281;29;20036;-87
2022/04/11 00:48:40;;;;;;;1.15;0.90;;;10.70;99.90;;;;;;4884364;29;20028;-86
2022/04/11 00:51:21;;;;;;;6.47;1.08;;;10.70;99.90;;;;;;4886051;29;20028;-87
2022/04/11 00:53:58;;;;;;;2.25;0.65;;;10.70;99.90;;;;;;4886126;29;20047;-87
2022/04/11 00:56:29;;;;;;;1.75;1.10;;;10.70;99.90;;;;;;4885869;29;20084;-87
2022/04/11 00:59:01;;;;;;;3.47;1.05;;;10.70;99.90;;;;;;4885822;29;20056;-87
2022/04/11 01:01:29;;;;;;;2.03;0.77;;;10.70;99.90;;;;;;4885731;29;20024;-87
2022/04/11 01:04:03;;;;;;;1.65;0.73;;;10.70;99.90;;;;;;4885771;29;20061;-87
2022/04/11 01:06:29;;;;;;;2.30;0.85;;;10.70;99.90;;;;;;4885727;29;20032;-87
2022/04/11 01:08:58;;;;;;;6.03;1.52;;;10.70;99.90;;;;;;4869285;29;20037;-86
2022/04/11 01:11:25;;;;;;;0.80;0.70;;;10.70;99.90;;;;;;4885446;29;20033;-87
2022/04/11 01:13:51;;;;;;;2.03;0.93;;;10.70;99.90;;;;;;4885393;29;20505;-87
2022/04/11 01:16:30;;;;;;;2.42;1.10;;;10.60;99.90;;;;;;4885550;29;20115;-86
2022/04/11 01:18:57;;;;;;;5.03;1.13;;;10.70;99.90;;;;;;4885539;29;20032;-87
2022/04/11 01:21:28;;;;;;;1.25;0.93;;;10.60;99.90;;;;;;4885364;29;20062;-87
2022/04/11 01:23:59;;;;;;;1.25;0.88;;;10.60;99.90;;;;;;4885346;29;20031;-86
2022/04/11 01:26:27;;;;;;;1.08;0.98;;;10.60;99.90;;;;;;4868640;29;20509;-87
2022/04/11 01:28:55;;;;;;;4.07;1.30;;;10.60;99.90;;;;;;4868391;29;20088;-87
2022/04/11 01:31:23;;;;;;;2.63;1.00;;;10.50;99.90;;;;;;4885185;29;20033;-86
2022/04/11 01:33:51;;;;;;;10.35;1.23;;;10.50;99.90;;;;;;4885103;29;20033;-87
2022/04/11 01:36:21;;;;;;;1.38;0.85;;;10.20;99.90;;;;;;4885343;29;20032;-87
2022/04/11 01:38:47;;;;;;;3.78;0.90;;;10.10;99.90;;;;;;4885073;29;20028;-87
2022/04/11 01:41:14;;;;;;;4.35;1.30;;;9.70;99.90;;;;;;4885047;29;20111;-86
2022/04/11 01:43:41;;;;;;;4.53;0.90;;;9.70;99.90;;;;;;4869882;29;20029;-86
2022/04/11 01:46:12;;;;;;;1.23;0.80;;;9.70;99.90;;;;;;4884890;29;20040;-86
2022/04/11 01:48:45;;;;;;;1.65;1.35;;;9.60;99.90;;;;;;4870146;29;20032;-86
2022/04/11 01:51:13;;;;;;;4.07;1.05;;;9.60;99.90;;;;;;4869126;29;20040;-86
2022/04/11 01:53:40;;;;;;;4.63;0.90;;;9.30;99.90;;;;;;4884830;29;20498;-87
2022/04/11 01:56:07;;;;;;;1.90;0.80;;;9.20;99.90;;;;;;4869247;29;20068;-86
2022/04/11 01:58:35;;;;;;;2.83;1.05;;;9.20;99.90;;;;;;4868616;29;20032;-87
2022/04/11 02:01:02;;;;;;;2.00;0.95;;;9.00;99.90;;;;;;4880337;29;20035;-86
2022/04/11 02:03:36;;;;;;;4.22;1.10;;;9.10;99.90;;;;;;4866962;29;20032;-86
2022/04/11 02:06:04;;;;;;;0.95;0.57;;;9.00;99.90;;;;;;4880386;29;20107;-86
2022/04/11 02:08:34;;;;;;;3.90;0.98;;;8.90;99.90;;;;;;4879376;29;20034;-86
2022/04/11 02:11:07;;;;;;;2.83;0.93;;;9.10;99.90;;;;;;4869758;29;20422;-86
2022/04/11 02:13:37;;;;;;;1.98;0.95;;;9.10;99.90;;;;;;4867949;29;20045;-87
2022/04/11 02:16:04;;;;;;;14.50;1.33;;;9.20;99.90;;;;;;4868124;29;20076;-86
2022/04/11 02:18:33;;;;;;;4.15;2.22;;;9.20;99.90;;;;;;4884489;29;20033;-87
2022/04/11 02:21:00;;;;;;;3.10;1.40;;;9.20;99.90;;;;;;4884233;29;20544;-87
2022/04/11 02:23:27;;;;;;;2.05;1.02;;;9.20;99.90;;;;;;4884263;29;20048;-87
2022/04/11 02:25:57;;;;;;;2.25;0.80;;;9.20;99.90;;;;;;4881445;29;20053;-87
2022/04/11 02:28:24;;;;;;;6.55;1.00;;;9.20;99.90;;;;;;4868843;29;20075;-86
2022/04/11 02:30:52;;;;;;;8.98;1.10;;;9.10;99.90;;;;;;4868966;29;20115;-87
2022/04/11 02:33:19;;;;;;;1.10;0.98;;;9.10;99.90;;;;;;4884069;29;20128;-86
2022/04/11 02:35:46;;;;;;;8.50;0.88;;;9.20;99.90;;;;;;4884097;29;20032;-86
2022/04/11 02:38:14;;;;;;;2.40;1.30;;;9.20;99.90;;;;;;4884001;29;20036;-87
2022/04/11 02:40:42;;;;;;;5.78;1.17;;;9.20;99.90;;;;;;4867501;29;20056;-87
2022/04/11 02:43:13;;;;;;;7.03;1.10;;;9.30;99.90;;;;;;4880794;29;20039;-86
2022/04/11 02:45:54;;;;;;;1.85;1.27;;;9.30;99.90;;;;;;4883252;29;20470;-86
2022/04/11 02:48:34;;;;;;;2.00;0.90;;;9.40;99.90;;;;;;4882809;29;20028;-86
2022/04/11 02:51:09;;;;;;;6.10;1.60;;;9.40;99.90;;;;;;4883830;29;20517;-86
2022/04/11 02:53:46;;;;;;;1.95;1.75;;;9.30;99.90;;;;;;4898760;29;20078;-86
2022/04/11 02:56:14;;;;;;;9.35;1.52;;;9.20;99.90;;;;;;4868472;29;20109;-86
2022/04/11 02:58:43;;;;;;;2.15;1.55;;;9.10;99.90;;;;;;4883983;29;20029;-86
2022/04/11 03:01:11;;;;;;;13.25;1.80;;;9.10;99.90;;;;;;4868146;29;20032;-87
2022/04/11 03:03:41;;;;;;;1.52;0.82;;;9.20;99.90;;;;;;4883944;29;20028;-86
2022/04/11 03:06:08;;;;;;;2.95;0.80;;;9.30;99.90;;;;;;4864598;29;20029;-86
2022/04/11 03:08:35;;;;;;;2.55;0.95;;;9.30;99.90;;;;;;4867028;29;20028;-87
2022/04/11 03:11:05;;;;;;;3.47;1.00;;;9.40;99.90;;;;;;4864306;29;20099;-87
2022/04/11 03:13:32;;;;;;;1.92;1.27;;;9.50;99.90;;;;;;4879459;29;20047;-86
2022/04/11 03:15:58;;;;;;;1.60;0.98;;;9.50;99.90;;;;;;4883457;29;20161;-87
2022/04/11 03:18:25;;;;;;;2.65;0.80;;;9.50;99.90;;;;;;4883191;29;20123;-86
2022/04/11 03:20:53;;;;;;;2.85;1.48;;;9.60;99.90;;;;;;4883110;29;20049;-86
2022/04/11 03:23:20;;;;;;;0.75;0.75;;;9.70;99.90;;;;;;4883341;29;20029;-86
2022/04/11 03:25:51;;;;;;;0.98;0.88;;;9.70;99.90;;;;;;4883069;29;20029;-86
2022/04/11 03:28:26;;;;;;;0.95;0.70;;;9.70;99.90;;;;;;4883128;29;20029;-86
2022/04/11 03:30:53;;;;;;;1.52;1.10;;;9.80;99.90;;;;;;4883051;29;20038;-87
2022/04/11 03:33:20;;;;;;;3.22;0.90;;;9.80;99.90;;;;;;4866691;29;20550;-86
2022/04/11 03:35:48;;;;;;;2.85;1.55;;;9.80;99.90;;;;;;4883746;29;20064;-86
2022/04/11 03:38:14;;;;;;;2.50;0.73;;;9.80;99.90;;;;;;4866709;29;20033;-87
2022/04/11 03:40:41;;;;;;;5.25;0.80;;;9.90;99.90;;;;;;4882988;29;20035;-86
2022/04/11 03:43:11;;;;;;;3.92;1.05;;;9.90;99.90;;;;;;4867013;29;20554;-87
2022/04/11 03:45:42;;;;;;;1.73;0.65;;;9.90;99.90;;;;;;4881215;29;20037;-88
2022/04/11 03:48:09;;;;;;;4.28;0.70;;;9.80;99.90;;;;;;4866685;29;20032;-86
2022/04/11 03:50:39;;;;;;;6.18;1.08;;;9.80;99.90;;;;;;4879245;29;20113;-87
2022/04/11 03:53:06;;;;;;;1.90;0.70;;;9.80;99.90;;;;;;4875523;29;20039;-87
2022/04/11 03:55:35;;;;;;;3.10;1.00;;;9.70;99.90;;;;;;4882790;29;20423;-86
2022/04/11 03:58:04;;;;;;;4.68;0.98;;;9.70;99.90;;;;;;4866228;29;20446;-87
2022/04/11 04:00:37;;;;;;;3.58;1.63;;;9.70;99.90;;;;;;4866596;29;20028;-88
2022/04/11 04:03:17;;;;;;;1.58;0.70;;;9.70;99.90;;;;;;4867270;29;20041;-85
2022/04/11 04:05:49;;;;;;;1.13;0.82;;;9.70;99.90;;;;;;4882606;29;20032;-89
2022/04/11 04:08:36;;;;;;;1.08;0.60;;;9.60;99.90;;;;;;4885277;29;20029;-87
2022/04/11 04:11:18;;;;;;;1.40;0.90;;;9.60;99.90;;;;;;4882498;29;20068;-87
2022/04/11 04:14:07;;;;;;;1.85;0.80;;;9.60;99.90;;;;;;4885668;29;20064;-88
2022/04/11 04:16:46;;;;;;;2.63;0.93;;;9.60;99.90;;;;;;4866566;29;20033;-87
2022/04/11 04:19:16;;;;;;;6.75;1.10;;;9.50;99.90;;;;;;4865950;29;20065;-86
2022/04/11 04:21:42;;;;;;;2.38;0.70;;;9.60;99.90;;;;;;4882076;29;20116;-87
2022/04/11 04:24:13;;;;;;;4.22;1.02;;;9.60;99.90;;;;;;4882329;29;20041;-87
2022/04/11 04:26:40;;;;;;;1.60;1.05;;;9.60;99.90;;;;;;4882416;29;20029;-90
2022/04/11 04:29:09;;;;;;;2.53;0.63;;;9.50;99.90;;;;;;4867384;29;20079;-87
2022/04/11 04:31:44;;;;;;;6.70;1.25;;;9.40;99.90;;;;;;4882303;29;20554;-86
2022/04/11 04:34:11;;;;;;;4.70;0.95;;;9.30;99.90;;;;;;4882124;29;20068;-86
2022/04/11 04:36:39;;;;;;;2.53;0.82;;;9.20;99.90;;;;;;4867107;29;20461;-86
2022/04/11 04:39:06;;;;;;;2.47;1.15;;;9.20;99.90;;;;;;4865989;29;20410;-87
2022/04/11 04:41:37;;;;;;;5.40;0.70;;;9.30;99.90;;;;;;4882413;29;20044;-87
2022/04/11 04:44:06;;;;;;;3.95;1.70;;;9.50;99.90;;;;;;4865715;29;20032;-87
2022/04/11 04:46:34;;;;;;;5.47;0.68;;;9.50;99.90;;;;;;4882424;29;20064;-87
2022/04/11 04:49:14;;;;;;;4.60;0.95;;;9.50;99.90;;;;;;4883682;29;20505;-87
2022/04/11 04:51:41;;;;;;;4.72;1.08;;;9.30;99.90;;;;;;4866318;29;20032;-87
2022/04/11 04:54:07;;;;;;;5.15;1.50;;;9.10;99.90;;;;;;4883189;29;20092;-88
2022/04/11 04:56:36;;;;;;;10.45;2.05;;;9.00;99.90;;;;;;4880266;29;20410;-87
2022/04/11 04:59:09;;;;;;;2.55;0.95;;;9.00;99.90;;;;;;4882117;29;20033;-87
2022/04/11 05:01:37;;;;;;;3.80;1.38;;;9.00;99.90;;;;;;4865581;29;20028;-87
2022/04/11 05:04:04;;;;;;;4.88;1.05;;;9.10;99.90;;;;;;4881998;29;20037;-87
2022/04/11 05:06:35;;;;;;;5.60;1.00;;;9.20;99.90;;;;;;4882032;29;20039;-88
2022/04/11 05:09:09;;;;;;;3.45;0.70;;;9.20;99.90;;;;;;4882168;29;20028;-88
2022/04/11 05:11:36;;;;;;;2.80;1.10;;;9.20;99.90;;;;;;4882056;29;20096;-88
2022/04/11 05:14:03;;;;;;;2.55;1.10;;;9.20;99.90;;;;;;4882024;29;20041;-87
2022/04/11 05:16:33;;;;;;;3.47;1.20;;;9.40;99.90;;;;;;4882061;29;20102;-87
2022/04/11 05:19:02;;;;;;;2.58;0.88;;;9.60;99.90;;;;;;4881995;29;20039;-87
2022/04/11 05:21:30;;;;;;;5.47;1.10;;;9.50;99.90;;;;;;4881752;29;20057;-87
2022/04/11 05:23:56;;;;;;;1.30;0.80;;;9.60;99.90;;;;;;4881818;29;20475;-87
2022/04/11 05:26:23;;;;;;;5.30;1.02;;;9.60;99.90;;;;;;4881935;29;20483;-87
2022/04/11 05:28:51;;;;;;;1.00;0.73;;;9.70;99.90;;;;;;4881664;29;20039;-86
2022/04/11 05:31:19;;;;;;;5.22;1.30;;;9.90;99.90;;;;;;4880811;29;20403;-82
2022/04/11 05:33:46;;;;;;;1.48;0.80;;;9.90;99.90;;;;;;4881763;29;20044;-82
2022/04/11 05:36:19;;;;;;;4.80;1.30;;;9.90;99.90;;;;;;4868465;29;20040;-84
2022/04/11 05:38:48;;;;;;;3.67;1.48;;;10.00;99.90;;;;;;4884477;29;20039;-84
2022/04/11 05:41:15;;;;;;;0.70;0.70;;;10.10;99.90;;;;;;4884768;29;20027;-86
2022/04/11 05:43:47;;;;;;;2.15;1.02;;;10.20;99.90;;;;;;4885030;29;20088;-86
2022/04/11 05:46:18;;;;;;;1.17;0.73;;;10.30;99.90;;;;;;4884953;29;20032;-86
2022/04/11 05:48:53;;;;;;;5.88;0.88;;;10.60;99.90;;;;;;4870351;29;20063;-86
2022/04/11 05:51:20;;;;;;;13.25;2.22;;;10.80;99.90;;;;;;4869278;29;20032;-85
2022/04/11 05:53:47;;;;;;;4.82;1.52;;;11.00;99.90;;;;;;4867817;29;20042;-86
2022/04/11 05:56:15;;;;;;;3.63;0.93;;;11.20;99.90;;;;;;4884655;29;20427;-86
2022/04/11 05:58:41;;;;;;;2.22;1.20;;;11.40;99.90;;;;;;4860273;29;20056;-87
2022/04/11 06:01:08;;;;;;;4.03;1.33;;;11.40;99.90;;;;;;4882026;29;20064;-86
2022/04/11 06:03:38;;;;;;;3.13;1.35;;;11.30;99.90;;;;;;4869275;29;20032;-87
2022/04/11 06:06:08;;;;;;;6.68;1.80;;;11.30;99.90;;;;;;4867939;29;20446;-87
2022/04/11 06:08:37;;;;;;;5.80;1.58;;;11.30;99.90;;;;;;4898083;29;20041;-85
2022/04/11 06:11:04;;;;;;;4.70;1.20;;;11.40;99.90;;;;;;4868779;29;20092;-85
2022/04/11 06:13:31;;;;;;;1.50;0.82;;;11.40;99.90;;;;;;4880139;29;20076;-85
2022/04/11 06:16:01;;;;;;;3.88;1.13;;;11.50;99.90;;;;;;4867916;29;20493;-85
2022/04/11 06:18:29;;;;;;;6.25;1.70;;;11.60;99.90;;;;;;4866624;29;20032;-85
2022/04/11 06:20:56;;;;;;;6.85;1.52;;;11.60;99.90;;;;;;4883988;29;20056;-86
2022/04/11 06:23:22;;;;;;;0.90;0.90;;;11.70;99.90;;;;;;4884248;29;20040;-86
2022/04/11 06:25:49;;;;;;;3.33;1.38;;;12.20;99.90;;;;;;4884008;29;20402;-86
2022/04/11 06:28:17;;;;;;;1.58;1.08;;;12.50;99.90;;;;;;4884223;29;20028;-86
2022/04/11 06:30:44;;;;;;;1.58;1.10;;;12.50;99.90;;;;;;4868706;29;20039;-86
2022/04/11 06:33:12;;;;;;;4.20;1.13;;;12.80;99.90;;;;;;4869492;29;20063;-87
2022/04/11 06:35:40;;;;;;;5.15;1.05;;;13.00;99.90;;;;;;4884020;29;20115;-86
2022/04/11 06:38:07;;;;;;;1.80;1.13;;;13.30;99.90;;;;;;4883973;29;20028;-86
2022/04/11 06:40:33;;;;;;;1.85;0.60;;;13.50;99.90;;;;;;4868343;29;20033;-86
2022/04/11 06:43:00;;;;;;;1.02;0.57;;;13.70;99.90;;;;;;4868470;29;20554;-86
2022/04/11 06:45:56;;;;;;;0.68;0.63;;;13.70;99.90;;;;;;4833783;29;20042;-86
2022/04/11 06:48:23;;;;;;;0.75;0.73;;;14.00;99.90;;;;;;4883782;29;20084;-86
2022/04/11 06:50:51;;;;;;;4.18;1.08;;;14.00;99.90;;;;;;4884062;29;20032;-86
2022/04/11 06:53:17;;;;;;;6.72;0.68;;;14.20;99.90;;;;;;4883562;29;20495;-86
2022/04/11 06:55:47;;;;;;;1.25;0.52;;;14.20;99.90;;;;;;4883904;29;20035;-86
2022/04/11 06:58:16;;;;;;;3.38;0.90;;;14.10;99.90;;;;;;4867117;29;20071;-86
2022/04/11 07:00:46;;;;;;;4.55;0.98;;;14.20;99.90;;;;;;4883496;29;20163;-85
2022/04/11 07:03:13;;;;;;;0.90;0.63;;;14.40;99.90;;;;;;4883397;29;20041;-85
2022/04/11 07:05:40;;;;;;;2.30;0.40;;;14.40;99.90;;;;;;4883277;29;20056;-87
2022/04/11 07:08:08;;;;;;;3.53;0.90;;;14.80;99.90;;;;;;4883310;29;20035;-87
2022/04/11 07:10:40;;;;;;;1.48;0.80;;;14.70;99.90;;;;;;4883623;29;20033;-86
2022/04/11 07:13:08;;;;;;;3.00;0.90;;;14.60;99.90;;;;;;4866721;29;20036;-86
2022/04/11 07:15:34;;;;;;;0.68;0.60;;;14.50;99.90;;;;;;4883229;29;20036;-86
2022/04/11 07:18:01;;;;;;;0.82;0.50;;;14.60;99.90;;;;;;4883014;29;20033;-84
2022/04/11 07:20:27;;;;;;;1.30;0.50;;;14.80;99.90;;;;;;4883047;29;20039;-86
2022/04/11 07:22:54;;;;;;;2.05;0.70;;;14.80;99.90;;;;;;4883079;29;20123;-86
2022/04/11 07:25:23;;;;;;;0.82;0.50;;;14.60;99.90;;;;;;4883054;29;20459;-87
2022/04/11 07:27:50;;;;;;;1.75;0.50;;;14.80;99.90;;;;;;4867829;29;20111;-86
2022/04/11 07:30:20;;;;;;;2.95;0.50;;;14.90;99.90;;;;;;4883012;29;20032;-87
2022/04/11 07:32:46;;;;;;;1.13;0.45;;;15.40;99.90;;;;;;4883181;29;20024;-88
2022/04/11 07:35:13;;;;;;;2.25;0.80;;;15.50;99.90;;;;;;4883149;29;20036;-93
2022/04/11 07:37:40;;;;;;;1.10;0.60;;;15.40;99.90;;;;;;4882920;29;20037;-85
2022/04/11 07:40:07;;;;;;;3.05;0.80;;;15.40;99.90;;;;;;4882629;29;20029;-83
2022/04/11 07:42:34;;;;;;;2.75;0.70;;;15.60;99.90;;;;;;4882659;29;20043;-87
2022/04/11 07:45:01;;;;;;;2.47;0.80;;;16.20;99.90;;;;;;4883058;29;20029;-87
2022/04/11 07:47:27;;;;;;;1.40;0.40;;;16.10;99.90;;;;;;4882489;29;20039;-82
2022/04/11 07:49:54;;;;;;;0.30;0.30;;;16.10;99.90;;;;;;4898802;29;20059;-82
2022/04/11 07:52:21;;;;;;;2.38;0.80;;;16.00;99.90;;;;;;4898744;29;20051;-82
2022/04/11 07:54:49;;;;;;;5.57;0.93;;;16.10;99.90;;;;;;4882124;29;20107;-82
2022/04/11 07:57:16;;;;;;;1.95;0.70;;;16.50;99.90;;;;;;4881493;29;20112;-81
2022/04/11 07:59:42;;;;;;;6.53;0.70;;;16.20;99.90;;;;;;4898973;29;20028;-83
2022/04/11 08:02:09;;;;;;;0.93;0.47;;;16.10;99.90;;;;;;4881871;29;20492;-83
2022/04/11 08:04:35;;;;;;;2.15;0.70;;;16.10;99.90;;;;;;4881873;29;20036;-83
2022/04/11 08:07:02;;;;;;;0.93;0.40;;;16.00;99.90;;;;;;4881862;29;20122;-83
2022/04/11 08:09:30;;;;;;;3.35;0.60;;;15.70;99.90;;;;;;4881950;29;20403;-83
2022/04/11 08:11:57;;;;;;;1.13;0.35;;;15.70;99.90;;;;;;4898571;29;20032;-83
2022/04/11 08:14:23;;;;;;;1.35;0.57;;;15.50;99.90;;;;;;4881731;29;20407;-83
2022/04/11 08:16:49;;;;;;;0.82;0.50;;;15.60;99.90;;;;;;4881729;29;20111;-83
2022/04/11 08:19:15;;;;;;;1.30;0.70;;;15.50;99.90;;;;;;4881686;29;20119;-83
2022/04/11 08:21:42;;;;;;;1.83;0.70;;;15.40;99.90;;;;;;4881369;29;20053;-83
2022/04/11 08:24:09;;;;;;;1.30;0.50;;;15.10;99.90;;;;;;4881650;29;20513;-83
2022/04/11 08:26:35;;;;;;;5.80;0.60;;;15.10;99.90;;;;;;4881567;29;20035;-83
2022/04/11 08:29:01;;;;;;;2.72;0.60;;;15.00;99.90;;;;;;4866130;29;20439;-83
2022/04/11 08:31:28;;;;;;;1.30;1.20;;;14.90;99.90;;;;;;4881492;29;20040;-83
2022/04/11 08:33:54;;;;;;;3.85;0.68;;;15.10;99.90;;;;;;4898562;29;20073;-83
2022/04/11 08:36:21;;;;;;;1.35;0.52;;;15.10;99.90;;;;;;4898415;29;20133;-83
2022/04/11 08:38:48;;;;;;;0.25;0.22;;;15.40;99.90;;;;;;4898178;29;20025;-82
2022/04/11 08:41:18;;;;;;;1.80;0.60;;;15.50;99.90;;;;;;4881409;29;20043;-82
2022/04/11 08:43:44;;;;;;;0.50;0.50;;;15.60;99.90;;;;;;4898320;29;20574;-82
2022/04/11 08:46:16;;;;;;;8.27;0.70;;;15.40;99.90;;;;;;4898259;29;20040;-83
2022/04/11 08:48:43;;;;;;;91.65;85.93;;;15.60;99.90;;;;;;4881497;29;20036;-83
2022/04/11 08:51:10;;;;;;;1.45;1.45;;;16.20;99.90;;;;;;4898557;29;20048;-83
2022/04/11 08:53:37;;;;;;;0.00;0.00;;;16.20;99.90;;;;;;4898114;29;20060;-83
2022/04/11 08:56:04;;;;;;;2.75;0.95;;;15.90;99.90;;;;;;4898109;29;20410;-83
2022/04/11 08:58:30;;;;;;;0.00;0.00;;;16.00;99.90;;;;;;4881366;29;20033;-83
2022/04/11 09:00:57;;;;;;;5.57;0.57;;;15.90;99.90;;;;;;4881312;29;20123;-83
2022/04/11 09:03:24;;;;;;;1.95;0.57;;;16.00;99.90;;;;;;4881320;29;20036;-83
2022/04/11 09:06:23;;;;;;;5.35;0.98;;;15.70;99.90;;;;;;4898134;29;20032;-83
2022/04/11 09:08:58;;;;;;;2.72;0.90;;;15.40;99.90;;;;;;4789950;29;20092;-83
2022/04/11 09:11:32;;;;;;;1.70;0.60;;;15.20;99.90;;;;;;4807705;29;20051;-83
2022/04/11 09:14:00;;;;;;;4.75;0.80;;;14.80;99.90;;;;;;4807893;29;20079;-83
2022/04/11 09:16:28;;;;;;;2.78;1.00;;;14.70;99.90;;;;;;4807294;29;20034;-83
2022/04/11 09:18:56;;;;;;;6.97;1.90;;;14.70;99.90;;;;;;4807596;29;20148;-83
2022/04/11 09:21:24;;;;;;;2.42;0.57;;;14.60;99.90;;;;;;4792116;29;20051;-83
2022/04/11 09:24:17;;;;;;;5.43;0.68;;;14.50;99.90;;;;;;4792157;29;20529;-83
2022/04/11 09:26:43;;;;;;;3.90;0.80;;;14.60;99.90;;;;;;4777207;29;20035;-83
2022/04/11 09:29:10;;;;;;;5.65;0.77;;;14.40;99.90;;;;;;4792144;29;20030;-83
2022/04/11 09:31:37;;;;;;;4.93;1.05;;;14.50;99.90;;;;;;4792249;29;20058;-83
2022/04/11 09:34:18;;;;;;;5.07;0.80;;;14.50;99.90;;;;;;4776950;29;20133;-83
2022/04/11 09:36:54;;;;;;;2.63;0.80;;;14.60;99.90;;;;;;4777159;29;20073;-83
2022/04/11 09:39:26;;;;;;;3.20;1.08;;;14.40;99.90;;;;;;4777155;29;20057;-83
2022/04/11 09:41:53;;;;;;;2.08;0.70;;;14.50;99.90;;;;;;4791890;29;20131;-83
2022/04/11 09:44:32;;;;;;;3.03;0.98;;;14.50;99.90;;;;;;4812043;29;20044;-83
2022/04/11 09:47:04;;;;;;;3.35;0.70;;;14.30;99.90;;;;;;4865575;29;20072;-83
2022/04/11 09:49:33;;;;;;;3.08;0.77;;;14.40;99.90;;;;;;4865732;29;20125;-82
2022/04/11 09:52:07;;;;;;;7.88;0.93;;;14.40;99.90;;;;;;4865484;29;20036;-82
2022/04/11 09:54:37;;;;;;;2.10;0.70;;;14.40;99.90;;;;;;4865524;29;20052;-83
2022/04/11 09:57:06;;;;;;;5.97;0.80;;;14.40;99.90;;;;;;4865534;29;20041;-82
2022/04/11 09:59:33;;;;;;;2.72;1.52;;;14.20;99.90;;;;;;4865276;29;20036;-82
2022/04/11 10:02:00;;;;;;;3.67;0.70;;;14.30;99.90;;;;;;4865491;29;20051;-82
2022/04/11 10:04:28;;;;;;;3.42;0.82;;;14.30;99.90;;;;;;4850013;29;20491;-82
2022/04/11 10:06:55;;;;;;;2.25;0.77;;;14.40;99.90;;;;;;4865311;29;20036;-83
2022/04/11 10:09:23;;;;;;;6.03;0.93;;;14.50;99.90;;;;;;4849800;29;20049;-83
2022/04/11 10:11:55;;;;;;;2.58;0.82;;;14.60;99.90;;;;;;4865305;29;20033;-83
2022/04/11 10:14:28;;;;;;;6.60;0.80;;;14.70;99.90;;;;;;4849974;29;20526;-83
2022/04/11 10:17:00;;;;;;;3.20;0.60;;;14.50;99.90;;;;;;4849751;29;20044;-83
2022/04/11 10:19:29;;;;;;;3.97;1.10;;;14.60;99.90;;;;;;4864685;29;20029;-82
2022/04/11 10:22:02;;;;;;;3.00;0.68;;;14.60;99.90;;;;;;4869785;29;20056;-83
2022/04/11 10:25:05;;;;;;;3.00;0.85;;;14.60;99.90;;;;;;4883533;29;20024;-83
2022/04/11 10:27:33;;;;;;;3.67;0.90;;;14.60;99.90;;;;;;4883596;29;20491;-83
2022/04/11 10:30:02;;;;;;;3.67;1.15;;;14.60;99.90;;;;;;4883558;29;20028;-83
2022/04/11 10:32:31;;;;;;;3.83;0.93;;;14.60;99.90;;;;;;4883422;29;20057;-83
2022/04/11 10:35:12;;;;;;;3.55;1.00;;;14.60;99.90;;;;;;4883230;29;20040;-83
2022/04/11 10:37:39;;;;;;;4.18;1.13;;;14.70;99.90;;;;;;4883757;29;20020;-82
2022/04/11 10:40:21;;;;;;;2.40;1.00;;;14.70;99.90;;;;;;4868018;29;20040;-82
2022/04/11 10:43:08;;;;;;;8.57;1.25;;;14.80;99.90;;;;;;4900166;29;20020;-82
2022/04/11 10:45:40;;;;;;;4.72;1.02;;;14.70;99.90;;;;;;4883503;29;20123;-82
2022/04/11 10:48:13;;;;;;;5.43;0.83;;;14.70;99.90;;;;;;4883647;29;20048;-82
2022/04/11 10:50:44;;;;;;;4.72;0.98;;;14.70;99.90;;;;;;4883296;29;20501;-83
2022/04/11 10:53:31;;;;;;;2.83;1.08;;;14.80;99.90;;;;;;4899802;29;20036;-82
2022/04/11 10:56:05;;;;;;;1.83;0.60;;;14.80;99.90;;;;;;4900210;29;20123;-82
2022/04/11 10:58:51;;;;;;;1.23;0.77;;;14.70;99.90;;;;;;4899815;29;20099;-82
2022/04/11 11:01:46;;;;;;;3.45;0.88;;;14.60;99.90;;;;;;4882850;29;20032;-82
2022/04/11 11:04:20;;;;;;;2.67;0.90;;;14.60;99.90;;;;;;4790597;29;20043;-83
2022/04/11 11:06:47;;;;;;;2.45;1.00;;;14.50;99.90;;;;;;4775665;29;20035;-82
2022/04/11 11:09:17;;;;;;;10.07;1.23;;;14.40;99.90;;;;;;4790672;29;20076;-82
2022/04/11 11:11:47;;;;;;;3.08;0.90;;;14.20;99.90;;;;;;4775480;29;20045;-82
2022/04/11 11:14:39;;;;;;;5.05;0.90;;;14.30;99.90;;;;;;4805380;29;20070;-82
2022/04/11 11:17:06;;;;;;;4.68;0.73;;;14.40;99.90;;;;;;4775279;29;20035;-83
2022/04/11 11:20:04;;;;;;;4.78;0.90;;;14.30;99.90;;;;;;4790350;29;20172;-82
2022/04/11 11:22:55;;;;;;;1.70;0.70;;;14.20;99.90;;;;;;4789965;29;20046;-82
2022/04/11 11:25:22;;;;;;;2.38;0.80;;;14.20;99.90;;;;;;4790197;29;20078;-82
2022/04/11 11:27:49;;;;;;;3.75;0.80;;;14.30;99.90;;;;;;4775287;29;20069;-82
2022/04/11 11:30:16;;;;;;;8.55;1.00;;;14.30;99.90;;;;;;4805300;29;20131;-83
2022/04/11 11:32:43;;;;;;;2.65;0.80;;;14.40;99.90;;;;;;4804554;29;20095;-82
2022/04/11 11:35:11;;;;;;;3.20;0.77;;;14.30;99.90;;;;;;4790330;29;20121;-83
2022/04/11 11:37:38;;;;;;;4.35;0.80;;;14.40;99.90;;;;;;4806068;29;20107;-85
2022/04/11 11:40:09;;;;;;;1.65;0.52;;;14.50;99.90;;;;;;4786364;29;20041;-84
2022/04/11 11:42:38;;;;;;;2.10;0.88;;;14.30;99.90;;;;;;4864425;29;20029;-85
2022/04/11 11:45:07;;;;;;;3.47;0.90;;;14.30;99.90;;;;;;4864278;29;20033;-85
2022/04/11 11:47:33;;;;;;;3.35;1.08;;;14.30;99.90;;;;;;4864287;29;20399;-85
2022/04/11 11:50:08;;;;;;;8.27;1.17;;;14.30;99.90;;;;;;4863914;29;20084;-84
2022/04/11 11:52:37;;;;;;;3.50;0.90;;;14.30;99.90;;;;;;4864099;29;20034;-85
2022/04/11 11:55:07;;;;;;;3.97;0.80;;;14.30;99.90;;;;;;4864038;29;20041;-85
2022/04/11 11:57:35;;;;;;;4.68;0.95;;;14.30;99.90;;;;;;4864037;29;20542;-85
2022/04/11 12:00:11;;;;;;;2.28;1.02;;;14.30;99.90;;;;;;4864138;29;20116;-84
2022/04/11 12:05:32;;;;;;;2.35;0.90;;;14.20;99.90;;;;;;4863848;29;20040;-85
2022/04/11 12:08:08;;;;;;;2.40;0.70;;;14.20;99.90;;;;;;4863737;29;20587;-84
2022/04/11 12:10:35;;;;;;;5.07;0.85;;;14.40;99.90;;;;;;4864039;29;20428;-85
2022/04/11 12:13:02;;;;;;;1.75;0.50;;;14.20;99.90;;;;;;4863946;29;20120;-85
2022/04/11 12:15:34;;;;;;;4.35;0.88;;;14.20;99.90;;;;;;4846068;29;20128;-85
2022/04/11 12:18:08;;;;;;;4.05;0.90;;;14.30;99.90;;;;;;4847926;29;20499;-84
2022/04/11 12:20:36;;;;;;;4.40;0.77;;;14.30;99.90;;;;;;4863984;29;20044;-84
2022/04/11 12:23:10;;;;;;;3.83;0.90;;;14.40;99.90;;;;;;4881895;29;20047;-84
2022/04/11 12:25:44;;;;;;;3.55;0.82;;;14.30;99.90;;;;;;4866999;29;20040;-87
2022/04/11 12:28:21;;;;;;;4.95;0.75;;;14.20;99.90;;;;;;4864852;29;20033;-89
2022/04/11 12:30:49;;;;;;;3.13;0.82;;;14.40;99.90;;;;;;4882392;29;20032;-87
2022/04/11 12:33:50;;;;;;;3.38;0.73;;;14.40;99.90;;;;;;4867058;29;20025;-85
2022/04/11 12:36:32;;;;;;;4.05;0.60;;;14.30;99.90;;;;;;4775412;29;20119;-85
2022/04/11 12:39:16;;;;;;;1.77;0.50;;;14.30;99.90;;;;;;4789244;29;20047;-85
2022/04/11 12:41:44;;;;;;;2.55;0.65;;;14.30;99.90;;;;;;4789187;29;20035;-84
2022/04/11 12:44:19;;;;;;;4.60;0.73;;;14.30;99.90;;;;;;4792499;29;20080;-85
2022/04/11 12:47:06;;;;;;;4.50;1.00;;;14.30;99.90;;;;;;4807741;29;20051;-84
2022/04/11 12:50:02;;;;;;;4.30;1.20;;;14.10;99.90;;;;;;4792519;29;20042;-84
2022/04/11 12:52:29;;;;;;;1.52;0.63;;;14.20;99.90;;;;;;4777771;29;20042;-83
2022/04/11 12:54:59;;;;;;;3.50;1.08;;;14.20;99.90;;;;;;4792159;29;20038;-83
2022/04/11 12:57:29;;;;;;;9.70;1.17;;;14.10;99.90;;;;;;4777621;29;20089;-83
2022/04/11 12:59:56;;;;;;;2.20;0.73;;;14.10;99.90;;;;;;4779190;29;20050;-84
2022/04/11 13:02:26;;;;;;;1.40;0.70;;;14.20;99.90;;;;;;4783967;29;20058;-83
2022/04/11 13:04:56;;;;;;;3.15;0.68;;;14.10;99.90;;;;;;4779105;29;20493;-83
2022/04/11 13:07:25;;;;;;;2.63;0.90;;;14.20;99.90;;;;;;4778871;29;20608;-84
2022/04/11 13:09:53;;;;;;;3.70;1.00;;;14.20;99.90;;;;;;4794230;29;20038;-85